WRF Oviedo,Actualizado el sábado día 15 a las 02:18:37
FECHA HORA TEMP RH P_CONV PREC T850 T500 RACHA DIR_V H850 H500 CAPE HPA NUB_L NUB_M NUB_H COTA
lun 03:00 9.7 98.4 0.0 0.0 15.2 -7.0 1 E 1546 5887 0.0 1022 0 0 0 3072
lun 04:00 9.5 97.3 0.0 0.0 15.2 -7.4 1 E 1547 5887 0.0 1022 0 0 0 3055
lun 05:00 9.4 95.1 0.0 0.0 15.0 -7.7 1 NE 1551 5888 0.0 1022 0 0 0 3030
lun 06:00 10.4 85.0 0.0 0.0 14.8 -7.8 2 E 1552 5889 0.0 1022 0 0 0 3006
lun 07:00 15.1 59.9 0.0 0.0 14.5 -7.8 1 NE 1557 5893 0.0 1023 0 0 0 2982
lun 08:00 19.0 48.6 0.0 0.0 14.8 -7.8 5 NE 1557 5895 0.0 1022 0 0 0 3012
lun 09:00 21.3 42.0 0.0 0.0 14.8 -7.7 9 NE 1558 5895 0.0 1022 0 0 0 3014
lun 10:00 23.4 42.7 0.0 0.0 15.4 -7.9 11 NE 1563 5900 0.0 1022 0 0 0 3064
lun 11:00 25.1 42.6 0.0 0.0 16.1 -7.9 10 NE 1567 5904 0.0 1022 0 0 0 3136
lun 12:00 25.9 44.3 0.0 0.0 16.6 -7.7 12 NE 1569 5910 0.0 1022 0 0 0 3193
lun 13:00 26.1 44.5 0.0 0.0 17.0 -7.3 14 NE 1568 5909 0.0 1021 0 0 0 3238
lun 14:00 26.3 43.2 0.0 0.0 17.3 -7.3 15 NE 1569 5911 0.0 1021 0 0 0 3277
lun 15:00 26.1 43.9 0.0 0.0 17.7 -7.3 15 NE 1569 5913 0.0 1021 0 0 0 3317
lun 16:00 25.7 46.0 0.0 0.0 18.1 -7.3 14 NE 1569 5913 0.0 1021 0 0 0 3349
lun 17:00 24.7 50.5 0.0 0.0 17.1 -7.6 15 NE 1569 5914 0.0 1021 0 0 0 3250
lun 18:00 23.1 58.0 0.0 0.0 17.0 -7.6 16 NE 1570 5916 0.0 1022 0 0 0 3239
lun 19:00 21.0 67.7 0.0 0.0 17.6 -7.5 14 NE 1573 5920 0.0 1022 0 0 0 3298
lun 20:00 18.5 82.1 0.0 0.0 18.3 -7.8 7 NE 1574 5924 0.0 1023 0 0 0 3360
lun 21:00 17.2 89.1 0.0 0.0 19.0 -7.7 6 NE 1576 5926 0.0 1023 0 0 6 3432
lun 22:00 15.9 96.6 0.0 0.0 19.2 -7.8 5 NE 1576 5926 0.0 1023 0 0 8 3454
lun 23:00 15.0 98.7 0.0 0.0 18.9 -7.8 6 NE 1575 5925 0.0 1023 0 0 0 3415
mar 00:00 14.3 100.0 0.0 0.0 18.6 -7.6 5 NE 1574 5924 0.0 1023 0 0 0 3391
mar 01:00 13.8 100.0 0.0 0.0 18.8 -7.8 3 E 1571 5919 0.0 1022 0 0 0 3406
mar 02:00 13.4 100.0 0.0 0.0 19.0 -7.9 2 NE 1568 5915 0.0 1022 0 0 0 3423
mar 03:00 12.9 100.0 0.0 0.0 18.7 -8.1 2 E 1567 5912 0.0 1022 0 0 0 3395
mar 04:00 12.6 100.0 0.0 0.0 18.7 -7.7 2 N 1567 5912 0.0 1022 0 0 1 3401
mar 05:00 12.3 100.0 0.0 0.0 18.6 -7.5 0 NE 1569 5914 0.0 1022 0 0 2 3396
mar 06:00 13.0 100.0 0.0 0.0 18.4 -7.4 1 SE 1570 5914 0.0 1022 0 0 0 3378
mar 07:00 17.1 81.9 0.0 0.0 18.3 -7.3 3 N 1573 5916 0.0 1023 0 0 0 3374
mar 08:00 20.6 67.8 0.0 0.0 18.5 -7.6 5 NE 1575 5917 0.0 1023 0 0 0 3382
mar 09:00 22.7 60.7 0.0 0.0 18.2 -7.4 9 NE 1576 5918 0.0 1023 0 0 0 3363
mar 10:00 24.6 56.7 0.0 0.0 18.4 -7.4 9 NE 1579 5921 0.0 1023 0 0 0 3378
mar 11:00 25.9 54.2 0.0 0.0 18.6 -7.6 10 NE 1582 5925 0.0 1023 0 0 0 3396
mar 12:00 27.0 51.6 0.0 0.0 19.3 -7.5 10 NE 1584 5929 0.0 1022 0 0 0 3472
mar 13:00 27.6 51.3 0.0 0.0 19.8 -7.3 11 NE 1583 5930 0.0 1022 0 0 0 3524
mar 14:00 26.6 56.2 0.0 0.0 19.7 -7.1 15 NE 1582 5932 0.0 1022 0 0 0 3516
mar 15:00 25.8 59.1 0.0 0.0 19.4 -6.9 15 NE 1581 5932 0.0 1022 0 0 0 3494
mar 16:00 25.1 62.3 0.0 0.0 19.3 -6.8 14 NE 1580 5929 0.0 1022 0 0 0 3487
mar 17:00 23.8 68.1 0.0 0.0 18.8 -6.7 15 NE 1579 5928 0.0 1022 0 0 0 3443
mar 18:00 22.1 76.3 0.0 0.0 18.4 -6.6 17 NE 1579 5927 0.0 1023 0 0 0 3403
mar 19:00 20.2 85.4 0.0 0.0 18.0 -6.6 18 NE 1580 5927 0.0 1023 0 0 0 3367
mar 20:00 18.4 94.1 0.0 0.0 18.6 -6.3 12 NE 1580 5928 0.0 1023 11 0 0 3429
mar 21:00 17.3 99.5 0.0 0.0 19.1 -6.2 7 NE 1580 5930 0.0 1024 28 0 0 3484
mar 22:00 17.0 99.6 0.0 0.0 19.1 -6.1 8 NE 1578 5928 2.0 1024 44 0 0 3489
mar 23:00 17.1 99.7 0.0 0.0 18.9 -6.0 6 NE 1577 5926 3.0 1024 53 0 0 3463
mié 00:00 17.1 99.5 0.0 0.0 18.9 -6.2 7 NE 1573 5923 4.0 1023 51 0 0 3460
mié 01:00 17.1 99.8 0.0 0.0 18.6 -6.3 7 NE 1568 5918 4.0 1023 60 0 0 3426
mié 02:00 17.0 99.1 0.0 0.0 18.7 -6.1 11 NE 1565 5913 4.0 1022 60 0 0 3448
mié 03:00 16.9 99.6 0.0 0.0 18.5 -6.2 12 NE 1563 5909 5.0 1022 70 0 0 3423
mié 04:00 16.8 100.0 0.0 0.0 18.2 -6.1 7 E 1562 5905 5.0 1022 60 0 0 3400
mié 05:00 16.7 100.0 0.0 0.0 18.1 -6.1 7 E 1561 5901 6.0 1022 70 0 0 3384
mié 06:00 16.6 98.9 0.0 0.0 17.8 -6.1 13 NE 1560 5900 7.0 1022 60 0 0 3358
mié 07:00 16.8 95.0 0.0 0.0 17.8 -6.0 16 NE 1560 5903 4.0 1022 60 0 0 3353
mié 08:00 17.5 91.7 0.0 0.0 17.9 -6.2 15 E 1560 5904 5.0 1022 51 0 0 3362
mié 09:00 18.5 87.1 0.0 0.0 17.9 -6.1 15 NE 1561 5904 6.0 1022 47 0 0 3368
mié 10:00 19.9 81.1 0.0 0.0 18.0 -6.0 13 NE 1562 5904 6.0 1022 50 0 0 3382
mié 11:00 22.9 68.2 0.0 0.0 18.6 -6.0 12 NE 1563 5904 3.0 1021 30 0 0 3435
mié 12:00 24.5 63.7 0.0 0.0 18.9 -6.0 13 NE 1563 5903 2.0 1021 10 0 0 3472
mié 13:00 24.7 63.9 0.0 0.0 19.4 -5.8 14 NE 1562 5903 4.0 1021 40 0 0 3520
mié 14:00 24.6 65.0 0.0 0.0 19.4 -5.6 16 NE 1560 5902 3.0 1020 40 0 0 3525
mié 15:00 24.0 69.0 0.0 0.0 19.1 -5.4 15 NE 1558 5901 2.0 1020 23 0 0 3507
mié 16:00 22.1 78.4 0.0 0.0 18.8 -5.4 18 NE 1555 5899 2.0 1020 43 0 0 3471
mié 17:00 21.0 83.6 0.0 0.0 18.4 -5.4 18 NE 1554 5898 2.0 1020 39 0 0 3435
mié 18:00 19.5 90.1 0.0 0.0 18.5 -5.2 17 NE 1552 5896 2.0 1020 52 0 0 3451
mié 19:00 18.7 94.0 0.0 0.0 18.4 -5.0 16 NE 1550 5897 4.0 1020 60 0 0 3442
mié 20:00 18.2 96.4 0.0 0.0 18.0 -5.1 14 NE 1551 5896 4.0 1020 50 0 0 3401
mié 21:00 18.1 97.3 0.0 0.0 18.4 -5.1 13 NE 1551 5896 4.0 1020 50 0 0 3441
mié 22:00 17.9 98.2 0.0 0.0 18.2 -5.1 19 NE 1549 5894 4.0 1020 60 0 0 3420
mié 23:00 17.6 99.4 0.0 0.0 18.1 -4.9 16 NE 1547 5891 4.0 1020 60 0 0 3420
jue 00:00 17.5 100.0 0.0 0.0 17.8 -4.8 9 NE 1543 5886 8.0 1020 60 0 0 3390
jue 01:00 17.4 100.0 0.0 0.0 17.8 -5.0 8 NE 1538 5881 7.0 1019 60 0 0 3391
jue 02:00 17.3 100.0 0.0 0.0 18.7 -5.2 9 NE 1534 5877 6.0 1018 50 0 0 3468
jue 03:00 17.2 99.5 0.0 0.0 18.6 -5.4 13 NE 1530 5872 3.0 1018 42 0 0 3453
jue 04:00 17.1 99.0 0.0 0.0 17.8 -5.5 13 NE 1527 5865 5.0 1017 41 0 0 3377
jue 05:00 16.9 99.9 0.0 0.0 17.4 -5.6 8 E 1526 5863 10.0 1017 50 0 0 3324
jue 06:00 16.9 99.7 0.0 0.0 17.0 -5.9 9 NE 1527 5862 11.0 1018 59 0 0 3286
jue 07:00 17.1 96.9 0.0 0.0 17.1 -5.9 13 E 1526 5863 10.0 1018 60 0 0 3290
jue 08:00 17.6 93.1 0.0 0.0 16.9 -5.8 15 NE 1525 5864 12.0 1018 60 0 0 3273
jue 09:00 18.3 87.7 0.0 0.0 16.8 -5.9 14 NE 1525 5862 9.0 1018 50 0 0 3263
jue 10:00 19.0 84.5 0.0 0.0 16.6 -6.1 11 NE 1525 5862 9.0 1018 60 0 0 3237
jue 11:00 20.2 79.7 0.0 0.0 17.4 -5.9 10 NE 1526 5863 9.0 1018 50 0 0 3323
jue 12:00 22.0 71.3 0.0 0.0 18.1 -5.9 9 NE 1525 5861 4.0 1017 40 0 0 3390
jue 13:00 24.7 61.4 0.0 0.0 18.1 -5.9 10 NE 1525 5860 1.0 1016 0 0 0 3393
jue 14:00 24.2 64.7 0.0 0.0 17.7 -6.0 10 NE 1524 5859 0.0 1016 0 0 0 3349
jue 15:00 23.7 66.8 0.0 0.0 17.3 -5.9 11 NE 1524 5859 0.0 1016 10 0 0 3308
jue 16:00 23.0 69.0 0.0 0.0 16.7 -6.0 11 NE 1522 5858 0.0 1016 10 0 0 3251
jue 17:00 21.9 73.2 0.0 0.0 17.0 -6.3 12 NE 1521 5857 0.0 1016 30 0 0 3272
jue 18:00 20.1 80.5 0.0 0.0 17.1 -6.3 17 NE 1520 5857 0.0 1016 40 0 0 3282
jue 19:00 17.8 89.1 0.0 0.0 16.9 -6.2 18 NE 1520 5858 0.0 1017 41 0 0 3267
jue 20:00 17.3 91.7 0.0 0.0 16.9 -6.3 13 NE 1521 5858 1.0 1017 46 0 0 3256
jue 21:00 17.1 93.0 0.0 0.0 17.6 -6.3 9 NE 1521 5860 1.0 1017 50 0 0 3329
jue 22:00 17.0 93.8 0.0 0.0 17.7 -6.5 8 NE 1519 5856 0.0 1017 44 0 0 3333
jue 23:00 16.8 94.8 0.0 0.0 17.8 -6.5 10 NE 1518 5853 0.0 1017 43 0 0 3344
vie 00:00 16.7 95.6 0.0 0.0 17.3 -6.6 8 NE 1516 5849 0.0 1016 49 0 0 3296